createdAt,value
2019-02-20T00:01:01.713Z,10.90
2019-02-20T00:02:36.603Z,11.40
2019-02-20T00:04:11.394Z,11.85
2019-02-20T00:05:47.054Z,11.53
2019-02-20T00:07:21.870Z,10.78
2019-02-20T00:08:56.660Z,10.93
2019-02-20T00:10:31.444Z,10.68
2019-02-20T00:12:06.464Z,11.10
2019-02-20T00:13:41.490Z,9.83
2019-02-20T00:15:16.534Z,10.82
2019-02-20T00:16:51.309Z,11.48
2019-02-20T00:18:26.099Z,11.25
2019-02-20T00:20:01.131Z,10.80
2019-02-20T00:21:35.933Z,11.68
2019-02-20T00:23:10.718Z,11.12
2019-02-20T00:24:45.496Z,11.53
2019-02-20T00:26:20.536Z,11.18
2019-02-20T00:27:55.553Z,11.88
2019-02-20T00:29:30.580Z,11.50
2019-02-20T00:31:06.105Z,11.22
2019-02-20T00:32:40.913Z,11.68
2019-02-20T00:34:15.708Z,11.53
2019-02-20T00:35:50.484Z,11.15
2019-02-20T00:37:25.259Z,11.68
2019-02-20T00:39:00.095Z,12.40
2019-02-20T00:40:34.873Z,11.33
2019-02-20T00:42:09.658Z,11.05
2019-02-20T00:43:48.191Z,12.55
2019-02-20T00:45:47.569Z,11.88
2019-02-20T00:47:34.856Z,12.30
2019-02-20T00:49:16.379Z,11.70
2019-02-20T00:50:53.922Z,12.18
2019-02-20T00:52:36.213Z,11.60
2019-02-20T00:54:11.002Z,11.68
2019-02-20T00:55:46.259Z,11.20
2019-02-20T00:57:21.134Z,11.75
2019-02-20T00:58:55.915Z,12.18
2019-02-20T01:00:30.704Z,12.20
2019-02-20T01:02:05.765Z,12.55
2019-02-20T01:03:40.915Z,12.18
2019-02-20T01:05:15.876Z,11.80
2019-02-20T01:06:50.666Z,12.05
2019-02-20T01:08:25.708Z,12.30
2019-02-20T01:10:00.823Z,11.95
2019-02-20T01:11:35.583Z,12.13
2019-02-20T01:13:10.652Z,11.48
2019-02-20T01:14:45.672Z,11.70
2019-02-20T01:16:20.484Z,12.40
2019-02-20T01:17:55.521Z,11.68
2019-02-20T01:19:30.310Z,12.82
2019-02-20T01:21:05.461Z,12.30
2019-02-20T01:22:40.239Z,12.13
2019-02-20T01:24:15.091Z,13.30
2019-02-20T01:25:50.376Z,12.20
2019-02-20T01:27:25.196Z,11.78
2019-02-20T01:28:59.979Z,12.15
2019-02-20T01:30:35.026Z,12.40
2019-02-20T01:32:09.817Z,12.35
2019-02-20T01:33:44.908Z,12.68
2019-02-20T01:35:19.760Z,12.25
2019-02-20T01:36:54.626Z,13.25
2019-02-20T01:38:29.647Z,12.25
2019-02-20T01:40:04.571Z,13.90
2019-02-20T01:41:39.613Z,12.93
2019-02-20T01:43:14.650Z,13.50
2019-02-20T01:44:49.425Z,13.55
2019-02-20T01:46:24.227Z,13.22
2019-02-20T01:47:59.523Z,12.55
2019-02-20T01:49:34.295Z,12.53
2019-02-20T01:51:09.427Z,13.28
2019-02-20T01:52:44.214Z,12.88
2019-02-20T01:54:18.998Z,12.90
2019-02-20T01:55:54.048Z,13.65
2019-02-20T01:57:29.155Z,13.08
2019-02-20T01:59:04.018Z,12.82
2019-02-20T02:00:39.232Z,13.35
2019-02-20T02:02:14.026Z,12.98
2019-02-20T02:03:49.084Z,13.72
2019-02-20T02:05:23.863Z,12.65
2019-02-20T02:06:58.910Z,13.15
2019-02-20T02:08:33.693Z,14.28
2019-02-20T02:10:09.185Z,13.80
2019-02-20T02:11:43.973Z,13.03
2019-02-20T02:13:18.817Z,14.30
2019-02-20T02:14:53.856Z,13.53
2019-02-20T02:16:28.924Z,13.72
2019-02-20T02:18:03.970Z,12.75
2019-02-20T02:19:39.013Z,13.98
2019-02-20T02:21:14.263Z,12.93
2019-02-20T02:22:49.571Z,13.28
2019-02-20T02:24:24.356Z,13.80
2019-02-20T02:25:59.009Z,13.48
2019-02-20T02:27:33.366Z,13.60
2019-02-20T02:29:08.005Z,13.78
2019-02-20T02:30:42.616Z,12.90
2019-02-20T02:32:16.982Z,14.15
2019-02-20T02:33:51.337Z,13.85
2019-02-20T02:35:25.736Z,13.58
2019-02-20T02:37:00.695Z,13.68
2019-02-20T02:38:35.051Z,14.40
2019-02-20T02:40:09.555Z,13.35
2019-02-20T02:41:44.855Z,13.13
2019-02-20T02:43:19.515Z,13.53
2019-02-20T02:44:54.030Z,12.60
2019-02-20T02:46:28.439Z,13.60
2019-02-20T02:48:02.830Z,12.75
2019-02-20T02:49:37.485Z,12.65
2019-02-20T02:51:12.681Z,13.50
2019-02-20T02:52:47.055Z,14.75
2019-02-20T02:54:22.433Z,14.30
2019-02-20T02:55:56.794Z,14.47
2019-02-20T02:57:31.159Z,14.23
2019-02-20T02:59:05.600Z,14.03
2019-02-20T03:00:40.059Z,14.28
2019-02-20T03:02:14.528Z,14.65
2019-02-20T03:03:48.962Z,14.35
2019-02-20T03:05:23.595Z,14.85
2019-02-20T03:06:58.475Z,14.00
2019-02-20T03:08:32.843Z,14.25
2019-02-20T03:10:07.701Z,12.68
2019-02-20T03:11:42.140Z,13.32
2019-02-20T03:13:16.771Z,13.50
2019-02-20T03:14:51.139Z,14.20
2019-02-20T03:16:25.503Z,13.75
2019-02-20T03:17:59.874Z,14.55
2019-02-20T03:19:34.325Z,14.43
2019-02-20T03:21:08.697Z,13.35
2019-02-20T03:22:43.389Z,14.20
2019-02-20T03:24:17.745Z,13.30
2019-02-20T03:25:52.393Z,14.03
2019-02-20T03:27:26.770Z,14.03
2019-02-20T03:29:01.389Z,13.45
2019-02-20T03:30:35.786Z,14.78
2019-02-20T03:32:11.128Z,13.93
2019-02-20T03:33:45.605Z,15.40
2019-02-20T03:35:20.080Z,14.18
2019-02-20T03:36:54.794Z,14.07
2019-02-20T03:38:30.562Z,15.53
2019-02-20T03:40:10.810Z,14.75
2019-02-20T03:41:45.693Z,13.95
2019-02-20T03:43:20.142Z,15.80
2019-02-20T03:44:54.510Z,14.47
2019-02-20T03:46:29.188Z,14.28
2019-02-20T03:48:03.572Z,15.13
2019-02-20T03:49:37.947Z,14.47
2019-02-20T03:51:12.597Z,15.03
2019-02-20T03:52:46.958Z,15.00
2019-02-20T03:54:21.584Z,14.47
2019-02-20T03:55:56.523Z,15.85
2019-02-20T03:57:30.908Z,14.07
2019-02-20T03:59:05.542Z,14.98
2019-02-20T04:00:39.906Z,14.10
2019-02-20T04:02:14.369Z,15.20
2019-02-20T04:03:48.843Z,15.78
2019-02-20T04:05:23.532Z,14.68
2019-02-20T04:06:58.563Z,13.95
2019-02-20T04:08:33.020Z,13.50
2019-02-20T04:10:09.109Z,14.35
2019-02-20T04:11:43.771Z,14.13
2019-02-20T04:13:18.386Z,15.40
2019-02-20T04:14:53.284Z,13.83
2019-02-20T04:16:27.934Z,14.25
2019-02-20T04:18:02.296Z,14.18
2019-02-20T04:19:36.653Z,14.30
2019-02-20T04:21:11.041Z,14.25
2019-02-20T04:22:45.640Z,14.47
2019-02-20T04:24:20.001Z,13.93
2019-02-20T04:25:54.659Z,14.53
2019-02-20T04:27:29.411Z,14.47
2019-02-20T04:29:03.770Z,13.72
2019-02-20T04:30:38.459Z,13.80
2019-02-20T04:32:12.987Z,15.63
2019-02-20T04:33:47.527Z,16.15
2019-02-20T04:35:21.928Z,14.30
2019-02-20T04:36:56.643Z,14.80
2019-02-20T04:38:31.302Z,14.38
2019-02-20T04:40:06.107Z,14.40
2019-02-20T04:41:40.967Z,15.13
2019-02-20T04:43:16.002Z,16.45
2019-02-20T04:44:50.626Z,14.43
2019-02-20T04:46:25.667Z,15.38
2019-02-20T04:48:00.194Z,16.93
2019-02-20T04:49:34.563Z,16.17
2019-02-20T04:51:09.025Z,15.90
2019-02-20T04:52:44.008Z,14.25
2019-02-20T04:54:18.812Z,14.33
2019-02-20T04:55:53.586Z,14.63
2019-02-20T04:57:27.990Z,14.05
2019-02-20T04:59:02.430Z,14.73
2019-02-20T05:00:36.876Z,15.15
2019-02-20T05:02:11.242Z,14.03
2019-02-20T05:03:45.943Z,14.80
2019-02-20T05:05:20.389Z,14.33
2019-02-20T05:06:55.259Z,13.90
2019-02-20T05:08:30.038Z,14.90
2019-02-20T05:10:05.111Z,14.00
2019-02-20T05:11:40.355Z,14.98
2019-02-20T05:13:15.660Z,15.93
2019-02-20T05:14:50.712Z,15.23
2019-02-20T05:16:25.503Z,14.55
2019-02-20T05:18:00.329Z,13.98
2019-02-20T05:19:35.137Z,14.55
2019-02-20T05:21:09.953Z,14.73
2019-02-20T05:22:44.744Z,15.38
2019-02-20T05:24:24.689Z,14.60
2019-02-20T05:25:57.082Z,14.85
2019-02-20T05:27:32.440Z,15.03
2019-02-20T05:29:07.219Z,14.05
2019-02-20T05:30:42.277Z,15.32
2019-02-20T05:32:17.527Z,14.83
2019-02-20T05:33:52.811Z,14.95
2019-02-20T05:35:27.845Z,14.73
2019-02-20T05:37:02.871Z,15.83
2019-02-20T05:38:37.646Z,16.12
2019-02-20T05:40:12.840Z,15.80
2019-02-20T05:41:47.890Z,14.75
2019-02-20T05:43:22.728Z,16.15
2019-02-20T05:44:57.508Z,17.02
2019-02-20T05:46:32.541Z,18.05
2019-02-20T05:48:07.323Z,16.93
2019-02-20T05:49:43.111Z,16.62
2019-02-20T05:51:18.162Z,15.98
2019-02-20T05:52:52.757Z,14.53
2019-02-20T05:54:34.096Z,15.65
2019-02-20T05:56:03.925Z,15.23
2019-02-20T05:57:38.587Z,15.38
2019-02-20T05:59:12.945Z,14.38
2019-02-20T06:00:47.314Z,14.40
2019-02-20T06:02:21.766Z,15.83
2019-02-20T06:03:56.134Z,15.25
2019-02-20T06:05:30.867Z,15.20
2019-02-20T06:07:05.648Z,14.98
2019-02-20T06:08:40.459Z,15.23
2019-02-20T06:10:15.529Z,14.83
2019-02-20T06:11:50.803Z,15.25
2019-02-20T06:13:25.823Z,15.30
2019-02-20T06:15:00.611Z,14.73
2019-02-20T06:16:35.434Z,15.03
2019-02-20T06:18:10.446Z,14.65
2019-02-20T06:19:45.219Z,14.90
2019-02-20T06:21:20.000Z,16.55
2019-02-20T06:22:55.327Z,14.73
2019-02-20T06:24:30.107Z,15.08
2019-02-20T06:26:04.911Z,14.55
2019-02-20T06:27:39.674Z,14.95
2019-02-20T06:29:14.579Z,15.35
2019-02-20T06:30:49.612Z,14.60
2019-02-20T06:32:24.405Z,14.25
2019-02-20T06:33:59.191Z,14.60
2019-02-20T06:35:34.249Z,14.28
2019-02-20T06:37:09.046Z,15.18
2019-02-20T06:38:44.075Z,15.53
2019-02-20T06:40:18.853Z,15.90
2019-02-20T06:41:53.947Z,14.33
2019-02-20T06:43:29.012Z,14.45
2019-02-20T06:45:05.220Z,14.87
2019-02-20T06:46:40.289Z,15.40
2019-02-20T06:48:15.349Z,15.98
2019-02-20T06:49:50.138Z,14.83
2019-02-20T06:51:24.925Z,14.68
2019-02-20T06:53:00.219Z,14.43
2019-02-20T06:54:35.055Z,15.60
2019-02-20T06:56:09.835Z,16.42
2019-02-20T06:57:45.219Z,17.17
2019-02-20T06:59:20.255Z,16.25
2019-02-20T07:00:55.331Z,15.58
2019-02-20T07:02:30.340Z,14.38
2019-02-20T07:04:05.123Z,15.35
2019-02-20T07:05:43.267Z,15.63
2019-02-20T07:08:08.831Z,14.98
2019-02-20T07:10:39.158Z,14.38
2019-02-20T07:12:34.466Z,14.80
2019-02-20T07:14:56.380Z,14.70
2019-02-20T07:17:14.334Z,16.05
2019-02-20T07:19:16.341Z,16.30
2019-02-20T07:21:35.598Z,15.80
2019-02-20T07:23:33.977Z,14.03
2019-02-20T07:25:50.357Z,14.40
2019-02-20T07:28:06.787Z,16.15
2019-02-20T07:30:07.473Z,15.72
2019-02-20T07:31:42.838Z,15.50
2019-02-20T07:33:17.874Z,15.58
2019-02-20T07:34:52.326Z,15.60
2019-02-20T07:36:26.910Z,16.50
2019-02-20T07:38:04.014Z,16.20
2019-02-20T07:39:38.799Z,16.62
2019-02-20T07:41:13.809Z,17.07
2019-02-20T07:42:48.664Z,17.30
2019-02-20T07:44:23.552Z,17.30
2019-02-20T07:45:58.570Z,16.95
2019-02-20T07:47:33.375Z,18.27
2019-02-20T07:49:08.396Z,17.77
2019-02-20T07:50:43.295Z,17.27
2019-02-20T07:52:18.115Z,16.52
2019-02-20T07:53:52.870Z,15.25
2019-02-20T07:55:27.692Z,19.87
2019-02-20T07:57:02.722Z,16.67
2019-02-20T07:58:37.762Z,17.32
2019-02-20T08:00:14.399Z,19.90
2019-02-20T08:01:49.171Z,17.90
2019-02-20T08:03:24.026Z,20.02
2019-02-20T08:04:59.048Z,17.85
2019-02-20T08:06:34.098Z,18.98
2019-02-20T08:08:08.759Z,16.73
2019-02-20T08:09:43.158Z,15.53
2019-02-20T08:11:36.933Z,15.98
2019-02-20T08:13:14.415Z,23.90
2019-02-20T08:14:50.518Z,55.30
2019-02-20T08:16:26.682Z,30.85
2019-02-20T08:18:08.534Z,18.45
2019-02-20T08:19:45.538Z,14.93
2019-02-20T08:21:20.906Z,13.60
2019-02-20T08:22:55.642Z,14.58
2019-02-20T08:24:30.354Z,14.03
2019-02-20T08:26:04.783Z,14.13
2019-02-20T08:27:39.266Z,14.10
2019-02-20T08:29:14.049Z,13.13
2019-02-20T08:30:49.068Z,13.83
2019-02-20T08:32:24.049Z,12.20
2019-02-20T08:33:59.074Z,12.80
2019-02-20T08:35:34.119Z,11.68
2019-02-20T08:37:11.758Z,12.95
2019-02-20T08:38:46.848Z,13.95
2019-02-20T08:40:21.866Z,12.00
2019-02-20T08:41:56.665Z,12.95
2019-02-20T08:43:31.812Z,12.37
2019-02-20T08:45:07.846Z,11.55
2019-02-20T08:46:42.673Z,12.70
2019-02-20T08:48:17.564Z,12.53
2019-02-20T08:49:54.396Z,12.65
2019-02-20T08:51:29.458Z,12.20
2019-02-20T08:53:04.357Z,12.80
2019-02-20T08:54:39.186Z,12.73
2019-02-20T08:56:14.248Z,11.80
2019-02-20T08:57:49.322Z,12.18
2019-02-20T08:59:24.179Z,12.90
2019-02-20T09:00:59.215Z,12.40
2019-02-20T09:02:34.015Z,11.67
2019-02-20T09:04:09.096Z,13.10
2019-02-20T09:05:43.892Z,12.05
2019-02-20T09:07:21.855Z,12.95
2019-02-20T09:08:56.696Z,12.60
2019-02-20T09:10:31.404Z,12.17
2019-02-20T09:12:05.788Z,13.25
2019-02-20T09:13:40.869Z,12.80
2019-02-20T09:15:16.643Z,12.88
2019-02-20T09:16:51.794Z,11.48
2019-02-20T09:18:26.596Z,12.50
2019-02-20T09:20:01.787Z,11.88
2019-02-20T09:21:43.964Z,11.48
2019-02-20T09:23:19.981Z,11.45
2019-02-20T09:24:55.035Z,12.00
2019-02-20T09:26:29.883Z,12.65
2019-02-20T09:28:05.027Z,11.38
2019-02-20T09:29:40.061Z,11.63
2019-02-20T09:31:35.532Z,11.60
2019-02-20T09:33:13.595Z,11.43
2019-02-20T09:34:48.380Z,13.43
2019-02-20T09:36:23.432Z,11.47
2019-02-20T09:38:01.165Z,11.57
2019-02-20T09:39:38.191Z,11.43
2019-02-20T09:41:13.135Z,11.48
2019-02-20T09:42:48.327Z,11.67
2019-02-20T09:44:23.197Z,12.33
2019-02-20T09:45:58.482Z,11.33
2019-02-20T09:47:33.520Z,11.78
2019-02-20T09:49:08.716Z,11.27
2019-02-20T09:50:43.796Z,12.43
2019-02-20T09:52:18.607Z,11.63
2019-02-20T09:53:56.574Z,12.27
2019-02-20T09:55:34.747Z,12.40
2019-02-20T09:57:09.854Z,11.60
2019-02-20T09:58:44.669Z,12.20
2019-02-20T10:00:20.334Z,11.90
2019-02-20T10:01:55.389Z,11.80
2019-02-20T10:03:30.709Z,12.47
2019-02-20T10:05:05.579Z,12.47
2019-02-20T10:06:40.729Z,12.73
2019-02-20T10:08:15.543Z,13.20
2019-02-20T10:09:50.333Z,12.10
2019-02-20T10:11:25.456Z,11.20
2019-02-20T10:13:00.284Z,12.27
2019-02-20T10:14:35.765Z,12.00
2019-02-20T10:16:10.608Z,12.17
2019-02-20T10:17:45.747Z,12.77
2019-02-20T10:19:20.558Z,13.27
2019-02-20T10:20:55.366Z,12.70
2019-02-20T10:22:31.429Z,12.37
2019-02-20T10:24:06.218Z,12.97
2019-02-20T10:25:41.047Z,12.67
2019-02-20T10:27:16.362Z,12.50
2019-02-20T10:28:51.144Z,12.20
2019-02-20T10:30:26.427Z,13.43
2019-02-20T10:32:01.516Z,13.13
2019-02-20T10:33:36.437Z,13.17
2019-02-20T10:35:14.294Z,12.67
2019-02-20T10:36:49.140Z,13.30
2019-02-20T10:38:23.987Z,13.13
2019-02-20T10:39:58.787Z,12.47
2019-02-20T10:41:33.868Z,12.93
2019-02-20T10:43:08.687Z,12.27
2019-02-20T10:44:46.313Z,13.63
2019-02-20T10:46:25.123Z,13.50
2019-02-20T10:48:02.981Z,12.93
2019-02-20T10:49:44.639Z,12.87
2019-02-20T10:51:39.591Z,12.90
2019-02-20T10:53:15.048Z,12.77
2019-02-20T10:54:57.604Z,11.60
2019-02-20T10:56:26.956Z,13.40
2019-02-20T10:58:03.782Z,12.10
2019-02-20T10:59:39.607Z,12.53
2019-02-20T11:01:19.494Z,12.83
2019-02-20T11:02:54.466Z,12.63
2019-02-20T11:04:35.554Z,12.67
2019-02-20T11:06:10.980Z,12.53
2019-02-20T11:07:45.734Z,12.40
2019-02-20T11:09:20.394Z,12.77
2019-02-20T11:10:55.318Z,12.40
2019-02-20T11:12:29.696Z,12.60
2019-02-20T11:14:04.678Z,12.07
2019-02-20T11:15:39.144Z,11.97
2019-02-20T11:17:15.997Z,11.77
2019-02-20T11:19:36.358Z,11.53
2019-02-20T11:21:14.351Z,11.73
2019-02-20T11:22:54.907Z,11.60
2019-02-20T11:24:29.943Z,11.30
2019-02-20T11:26:04.901Z,10.23
2019-02-20T11:27:39.754Z,10.50
2019-02-20T11:31:30.823Z,10.10
2019-02-20T11:33:05.961Z,10.40
2019-02-20T11:34:42.574Z,10.47
2019-02-20T11:36:18.019Z,9.83
2019-02-20T11:38:15.052Z,9.00
2019-02-20T11:39:53.979Z,8.27
2019-02-20T11:41:28.715Z,8.70
2019-02-20T11:43:03.831Z,10.03
2019-02-20T11:44:40.538Z,9.60
2019-02-20T11:46:16.061Z,8.80
2019-02-20T11:48:43.073Z,10.20
2019-02-20T11:54:15.941Z,10.10
2019-02-20T11:59:47.618Z,8.73
2019-02-20T12:01:25.550Z,8.70
2019-02-20T12:30:26.315Z,8.00
2019-02-20T12:33:17.640Z,7.37
2019-02-20T12:45:13.330Z,6.07
2019-02-20T14:32:06.444Z,5.33
2019-02-20T14:37:33.953Z,5.73
2019-02-20T14:40:09.604Z,6.10
2019-02-20T14:46:14.170Z,6.57
2019-02-20T14:49:31.006Z,6.63
2019-02-20T14:52:09.716Z,6.10
2019-02-20T14:55:12.069Z,6.40
2019-02-20T15:00:59.497Z,6.10
2019-02-20T15:02:36.248Z,5.80
2019-02-20T15:04:30.383Z,5.87
2019-02-20T15:06:05.674Z,5.93
2019-02-20T15:07:40.840Z,5.50
2019-02-20T15:09:16.056Z,6.57
2019-02-20T15:10:50.950Z,5.67
2019-02-20T15:12:26.329Z,5.83
2019-02-20T15:14:01.268Z,6.17
2019-02-20T15:15:36.177Z,6.57
2019-02-20T15:17:11.447Z,6.57
2019-02-20T15:18:46.365Z,5.80
2019-02-20T15:20:21.400Z,5.97
2019-02-20T15:21:56.274Z,5.83
2019-02-20T15:23:31.340Z,5.60
2019-02-20T15:25:07.008Z,5.50
2019-02-20T15:26:42.075Z,5.60
2019-02-20T15:28:17.472Z,5.77
2019-02-20T15:29:52.283Z,5.50
2019-02-20T15:31:33.548Z,5.90
2019-02-20T15:33:03.829Z,5.30
2019-02-20T15:34:38.618Z,5.50
2019-02-20T15:36:13.493Z,6.00
2019-02-20T15:37:49.068Z,5.60
2019-02-20T15:39:24.382Z,6.30
2019-02-20T15:40:59.435Z,5.80
2019-02-20T15:42:34.563Z,6.10
2019-02-20T15:44:09.622Z,5.90
2019-02-20T15:45:44.998Z,5.67
2019-02-20T15:47:19.796Z,6.37
2019-02-20T15:48:54.898Z,5.77
2019-02-20T15:51:19.980Z,6.47
2019-02-20T15:52:54.837Z,5.47
2019-02-20T15:54:29.896Z,5.43
2019-02-20T15:56:04.946Z,5.10
2019-02-20T15:57:43.676Z,4.83
2019-02-20T15:59:20.385Z,4.60
2019-02-20T16:00:56.972Z,5.17
2019-02-20T16:02:31.812Z,4.10
2019-02-20T16:04:10.334Z,3.93
2019-02-20T16:05:45.199Z,3.93
2019-02-20T16:07:22.984Z,3.70
2019-02-20T16:08:58.410Z,3.90
2019-02-20T16:10:34.800Z,5.03
2019-02-20T16:12:09.835Z,4.57
2019-02-20T16:13:45.611Z,4.43
2019-02-20T16:15:27.320Z,4.37
2019-02-20T16:17:27.176Z,4.30
2019-02-20T16:19:04.356Z,3.90
2019-02-20T16:20:38.885Z,4.10
2019-02-20T16:22:13.677Z,4.20
2019-02-20T16:23:48.472Z,4.20
2019-02-20T16:25:23.864Z,3.83
2019-02-20T16:26:59.004Z,3.92
2019-02-20T16:28:34.267Z,4.20
2019-02-20T16:30:10.751Z,4.10
2019-02-20T16:31:45.812Z,4.05
2019-02-20T16:33:22.537Z,3.80
2019-02-20T16:34:59.196Z,3.70
2019-02-20T16:36:36.823Z,4.28
2019-02-20T16:42:18.967Z,4.53
2019-02-20T16:42:21.555Z,4.60
2019-02-20T16:43:56.386Z,5.42
2019-02-20T16:45:31.250Z,4.90
2019-02-20T16:47:06.207Z,4.90
2019-02-20T16:48:40.990Z,5.05
2019-02-20T16:50:16.194Z,5.12
2019-02-20T16:51:50.958Z,5.20
2019-02-20T16:53:27.249Z,5.70
2019-02-20T16:55:02.514Z,5.37
2019-02-20T16:56:37.344Z,4.37
2019-02-20T16:58:12.479Z,5.05
2019-02-20T16:59:47.317Z,5.05
2019-02-20T17:01:22.484Z,5.50
2019-02-20T17:02:57.286Z,5.67
2019-02-20T17:04:32.301Z,4.97
2019-02-20T17:06:07.618Z,5.33
2019-02-20T17:07:42.903Z,5.35
2019-02-20T17:09:18.497Z,5.20
2019-02-20T17:10:53.865Z,5.53
2019-02-20T17:12:30.404Z,5.72
2019-02-20T17:14:05.428Z,5.70
2019-02-20T17:15:40.367Z,5.97
2019-02-20T17:17:15.515Z,5.50
2019-02-20T17:18:50.573Z,5.97
2019-02-20T17:20:25.953Z,5.58
2019-02-20T17:22:00.991Z,6.12
2019-02-20T17:23:36.371Z,5.85
2019-02-20T17:25:12.282Z,5.97
2019-02-20T17:26:47.085Z,6.28
2019-02-20T17:28:22.013Z,6.12
2019-02-20T17:29:56.809Z,5.65
2019-02-20T17:31:31.934Z,5.45
2019-02-20T17:33:06.708Z,5.60
2019-02-20T17:34:41.416Z,6.25
2019-02-20T17:36:15.849Z,6.00
2019-02-20T17:37:50.990Z,6.80
2019-02-20T17:39:25.990Z,6.45
2019-02-20T17:41:00.618Z,6.12
2019-02-20T17:42:35.866Z,5.80
2019-02-20T17:44:10.599Z,6.28
2019-02-20T17:45:45.385Z,5.80
2019-02-20T17:47:19.818Z,5.72
2019-02-20T17:48:54.523Z,6.85
2019-02-20T17:50:29.291Z,6.58
2019-02-20T17:52:03.736Z,6.85
2019-02-20T17:53:38.187Z,6.53
2019-02-20T17:55:13.052Z,6.65
2019-02-20T17:56:47.800Z,6.47
2019-02-20T17:58:22.722Z,6.22
2019-02-20T17:59:57.510Z,6.42
2019-02-20T18:01:32.274Z,6.30
2019-02-20T18:03:07.671Z,6.03
2019-02-20T18:04:42.685Z,5.62
2019-02-20T18:06:17.487Z,6.58
2019-02-20T18:07:52.276Z,6.58
2019-02-20T18:09:26.714Z,6.58
2019-02-20T18:11:01.710Z,6.87
2019-02-20T18:12:36.754Z,6.90
2019-02-20T18:14:11.103Z,6.65
2019-02-20T18:15:45.773Z,7.15
2019-02-20T18:17:20.296Z,7.90
2019-02-20T18:18:54.914Z,7.10
2019-02-20T18:20:29.287Z,7.53
2019-02-20T18:22:04.063Z,8.33
2019-02-20T18:23:38.555Z,9.10
2019-02-20T18:25:13.343Z,8.93
2019-02-20T18:26:48.036Z,9.63
2019-02-20T18:28:24.756Z,9.98
2019-02-20T18:29:59.261Z,9.60
2019-02-20T18:31:33.892Z,9.25
2019-02-20T18:33:08.347Z,8.78
2019-02-20T18:34:42.746Z,8.38
2019-02-20T18:36:17.429Z,8.60
2019-02-20T18:37:52.123Z,9.48
2019-02-20T18:39:27.135Z,8.93
2019-02-20T18:41:01.930Z,8.55
2019-02-20T18:42:36.788Z,8.35
2019-02-20T18:44:11.630Z,8.95
2019-02-20T18:45:46.435Z,8.63
2019-02-20T18:47:21.468Z,9.38
2019-02-20T18:48:56.258Z,8.50
2019-02-20T18:50:31.067Z,9.75
2019-02-20T18:52:05.872Z,9.60
2019-02-20T18:53:40.657Z,8.95
2019-02-20T18:55:15.525Z,8.70
2019-02-20T18:56:50.335Z,8.78
2019-02-20T18:58:33.544Z,8.65
2019-02-20T19:00:01.876Z,8.95
2019-02-20T19:01:37.168Z,9.33
2019-02-20T19:03:11.861Z,8.60
2019-02-20T19:04:46.514Z,8.35
2019-02-20T19:06:21.673Z,9.33
2019-02-20T19:07:56.553Z,9.30
2019-02-20T19:09:31.693Z,10.05
2019-02-20T19:11:17.127Z,9.98
2019-02-20T19:13:29.248Z,9.33
2019-02-20T19:15:28.218Z,9.93
2019-02-20T19:18:02.460Z,9.40
2019-02-20T19:19:48.384Z,10.32
2019-02-20T19:21:38.490Z,9.48
2019-02-20T19:23:53.942Z,10.23
2019-02-20T19:25:53.193Z,9.40
2019-02-20T19:27:40.344Z,10.53
2019-02-20T19:29:46.717Z,9.98
2019-02-20T19:32:03.239Z,11.25
2019-02-20T19:34:17.235Z,10.80
2019-02-20T19:37:00.793Z,12.37
2019-02-20T19:39:29.793Z,9.95
2019-02-20T19:41:38.876Z,9.93
2019-02-20T19:43:52.810Z,10.13
2019-02-20T19:45:49.125Z,11.53
2019-02-20T19:48:24.791Z,11.68
2019-02-20T19:51:11.708Z,10.18
2019-02-20T19:53:07.277Z,10.53
2019-02-20T19:54:58.663Z,9.98
2019-02-20T19:57:20.415Z,10.58
2019-02-20T19:59:31.212Z,10.98
2019-02-20T20:02:01.724Z,11.05
2019-02-20T20:04:10.352Z,10.32
2019-02-20T20:07:06.536Z,11.10
2019-02-20T20:09:09.509Z,10.25
2019-02-20T20:11:24.583Z,12.07
2019-02-20T20:13:35.883Z,10.43
2019-02-20T20:15:55.289Z,11.33
2019-02-20T20:18:30.095Z,10.70
2019-02-20T20:20:19.422Z,10.82
2019-02-20T20:22:30.482Z,10.80
2019-02-20T20:24:42.567Z,10.80
2019-02-20T20:27:15.698Z,11.10
2019-02-20T20:29:49.964Z,10.48
2019-02-20T20:32:10.240Z,12.75
2019-02-20T20:34:32.723Z,11.48
2019-02-20T20:37:04.631Z,11.75
2019-02-20T20:39:18.495Z,14.00
2019-02-20T20:41:54.074Z,13.80
2019-02-20T20:44:01.527Z,13.08
2019-02-20T20:46:45.599Z,12.85
2019-02-20T20:48:52.069Z,16.07
2019-02-20T20:50:42.809Z,14.90
2019-02-20T20:52:47.907Z,17.23
2019-02-20T20:55:32.551Z,17.55
2019-02-20T20:58:10.009Z,15.80
2019-02-20T21:00:38.423Z,13.60
2019-02-20T21:02:26.408Z,15.23
2019-02-20T21:04:51.096Z,16.50
2019-02-20T21:07:12.273Z,14.80
2019-02-20T21:09:22.472Z,16.52
2019-02-20T21:11:37.627Z,14.68
2019-02-20T21:13:48.382Z,14.78
2019-02-20T21:15:54.563Z,15.58
2019-02-20T21:18:52.491Z,15.60
2019-02-20T21:21:00.147Z,15.30
2019-02-20T21:23:25.629Z,16.23
2019-02-20T21:25:30.976Z,14.98
2019-02-20T21:27:33.748Z,16.02
2019-02-20T21:29:47.284Z,15.78
2019-02-20T21:32:19.538Z,16.10
2019-02-20T21:34:22.107Z,15.08
2019-02-20T21:36:58.979Z,15.05
2019-02-20T21:39:40.494Z,14.38
2019-02-20T21:41:44.309Z,14.70
2019-02-20T21:44:18.504Z,14.87
2019-02-20T21:46:37.629Z,15.70
2019-02-20T21:49:52.665Z,14.00
2019-02-20T21:52:21.238Z,13.88
2019-02-20T21:54:55.771Z,14.00
2019-02-20T22:01:12.937Z,13.28
2019-02-20T22:14:28.849Z,16.90
2019-02-20T22:17:23.759Z,20.43
2019-02-20T22:19:48.425Z,17.05
2019-02-20T22:22:32.480Z,16.95
2019-02-20T22:25:12.456Z,15.32
2019-02-20T22:27:40.882Z,14.30
2019-02-20T22:30:05.394Z,15.38
2019-02-20T22:32:17.083Z,14.68
2019-02-20T22:34:20.954Z,12.80
2019-02-20T22:36:37.919Z,13.40
2019-02-20T22:39:11.820Z,11.83
2019-02-20T22:41:24.108Z,12.85
2019-02-20T22:44:08.144Z,12.65
2019-02-20T22:46:20.178Z,12.23
2019-02-20T22:48:51.281Z,13.65
2019-02-20T22:51:00.330Z,12.53
2019-02-20T22:53:03.582Z,12.53
2019-02-20T22:55:30.056Z,13.05
2019-02-20T22:57:45.536Z,12.58
2019-02-20T22:59:49.222Z,12.37
2019-02-20T23:01:55.611Z,12.07
2019-02-20T23:03:48.725Z,12.55
2019-02-20T23:06:20.465Z,12.73
2019-02-20T23:08:13.247Z,11.33
2019-02-20T23:10:16.447Z,12.80
2019-02-20T23:12:38.209Z,12.68
2019-02-20T23:14:31.796Z,12.05
2019-02-20T23:16:06.580Z,11.75
2019-02-20T23:17:41.362Z,12.65
2019-02-20T23:19:16.420Z,11.63
2019-02-20T23:20:51.455Z,12.15
2019-02-20T23:22:26.306Z,12.00
2019-02-20T23:24:01.096Z,12.82
2019-02-20T23:25:36.133Z,12.05
2019-02-20T23:27:11.410Z,12.03
2019-02-20T23:28:46.189Z,11.83
2019-02-20T23:30:21.012Z,11.88
2019-02-20T23:31:55.796Z,12.35
2019-02-20T23:33:31.086Z,12.55
2019-02-20T23:35:06.523Z,13.10
2019-02-20T23:36:41.319Z,12.33
2019-02-20T23:38:16.094Z,12.07
2019-02-20T23:39:50.868Z,11.95
2019-02-20T23:41:25.890Z,11.85
2019-02-20T23:43:01.201Z,12.93
2019-02-20T23:44:36.279Z,13.95
2019-02-20T23:46:11.409Z,12.70
2019-02-20T23:47:46.187Z,12.43
2019-02-20T23:49:21.252Z,13.20
2019-02-20T23:50:56.285Z,12.75
2019-02-20T23:52:31.587Z,12.37
2019-02-20T23:54:06.369Z,12.55
2019-02-20T23:55:41.153Z,12.90
2019-02-20T23:57:16.442Z,12.65
2019-02-20T23:58:51.474Z,13.53
